Time;durP1;ratioP1;P1;durP2;ratioP2;P2;SDS_P1;SDS_P2;PMS_P1;PMS_P2;Temp;Humidity;BMP_temperature;BMP_pressure;BME280_temperature;BME280_humidity;BME280_pressure;Samples;Min_cycle;Max_cycle;Signal;HPM_P1;HPM_P2
2023/11/30 00:00:18;;;;;;;5.50;3.65;;;;;;;5.49;100.00;100232.31;4992961;28;20039;-68
2023/11/30 00:02:44;;;;;;;5.13;3.30;;;;;;;5.46;100.00;100226.19;4992692;28;20041;-69
2023/11/30 00:05:09;;;;;;;5.85;3.30;;;;;;;5.92;100.00;100300.31;4993002;28;20461;-70
2023/11/30 00:07:35;;;;;;;5.40;3.42;;;;;;;6.02;100.00;100313.66;4992533;28;20030;-72
2023/11/30 00:10:01;;;;;;;5.95;3.25;;;;;;;6.03;100.00;100307.72;4992748;28;20033;-71
2023/11/30 00:12:26;;;;;;;6.15;2.95;;;;;;;5.98;100.00;100298.13;4988758;28;20034;-69
2023/11/30 00:14:52;;;;;;;6.28;2.60;;;;;;;6.10;100.00;100308.13;4992575;28;20535;-71
2023/11/30 00:17:17;;;;;;;4.47;3.15;;;;;;;5.81;100.00;100263.88;4992293;28;20030;-72
2023/11/30 00:19:43;;;;;;;5.57;3.00;;;;;;;5.89;100.00;100289.03;4992575;28;20030;-68
2023/11/30 00:22:08;;;;;;;6.38;3.10;;;;;;;5.60;100.00;100291.78;4992515;28;20034;-71
2023/11/30 00:24:34;;;;;;;4.95;3.30;;;;;;;5.45;100.00;100307.22;4992280;28;20060;-69
2023/11/30 00:26:59;;;;;;;4.90;3.38;;;;;;;5.60;100.00;100337.03;4992493;28;20393;-70
2023/11/30 00:29:24;;;;;;;5.10;3.13;;;;;;;5.62;100.00;100337.97;4992144;28;20031;-70
2023/11/30 00:31:50;;;;;;;7.85;3.08;;;;;;;5.38;100.00;100291.44;4991982;28;20054;-69
2023/11/30 00:34:15;;;;;;;6.25;3.72;;;;;;;5.72;100.00;100342.81;5005930;28;20026;-72
2023/11/30 00:36:41;;;;;;;5.53;3.35;;;;;;;5.55;100.00;100323.09;4991903;28;20026;-68
2023/11/30 00:39:06;;;;;;;3.85;3.00;;;;;;;5.46;100.00;100333.72;4992217;28;20036;-68
2023/11/30 00:41:31;;;;;;;5.03;3.28;;;;;;;5.39;100.00;100346.97;4991797;28;20034;-73
2023/11/30 00:43:57;;;;;;;6.00;3.70;;;;;;;5.45;100.00;100358.41;4991703;28;20523;-68
2023/11/30 00:46:22;;;;;;;6.13;3.58;;;;;;;5.53;100.00;100361.38;4991255;28;20057;-68
2023/11/30 00:48:48;;;;;;;6.00;3.58;;;;;;;5.43;100.00;100349.78;4991818;28;20041;-68
2023/11/30 00:51:13;;;;;;;6.35;3.85;;;;;;;5.54;100.00;100375.09;4979542;28;20131;-69
2023/11/30 00:53:39;;;;;;;5.30;3.50;;;;;;;5.40;100.00;100348.72;4991262;28;20495;-70
2023/11/30 00:56:06;;;;;;;6.80;3.38;;;;;;;5.53;100.00;100394.69;4991447;28;20033;-71
2023/11/30 00:58:31;;;;;;;8.07;3.92;;;;;;;4.75;100.00;100296.44;4990793;28;20041;-68
2023/11/30 01:00:57;;;;;;;6.10;4.05;;;;;;;4.74;100.00;100308.34;4978616;28;20030;-70
2023/11/30 01:03:22;;;;;;;7.07;3.80;;;;;;;5.18;100.00;100404.72;4991687;28;20088;-69
2023/11/30 01:05:48;;;;;;;5.10;3.42;;;;;;;4.66;100.00;100351.41;4991289;28;20031;-68
2023/11/30 01:08:14;;;;;;;9.15;4.93;;;;;;;4.70;100.00;100380.59;4991111;28;20038;-68
2023/11/30 01:10:41;;;;;;;6.82;4.43;;;;;;;4.97;100.00;100423.91;4991340;28;20489;-71
2023/11/30 01:13:06;;;;;;;8.25;4.30;;;;;;;4.93;100.00;100397.28;4991101;28;20022;-70
2023/11/30 01:15:32;;;;;;;9.43;5.20;;;;;;;5.08;100.00;100392.16;4991737;28;20034;-70
2023/11/30 01:17:58;;;;;;;7.47;4.47;;;;;;;4.72;100.00;100338.06;4991396;28;20027;-71
2023/11/30 01:20:23;;;;;;;14.10;6.93;;;;;;;5.02;100.00;100433.63;4991198;28;20058;-69
2023/11/30 01:22:49;;;;;;;9.70;5.82;;;;;;;4.86;100.00;100395.16;4990854;28;20054;-70
2023/11/30 01:25:14;;;;;;;13.15;6.63;;;;;;;4.57;100.00;100375.53;4991343;28;20461;-70
2023/11/30 01:27:39;;;;;;;8.63;4.85;;;;;;;4.73;100.00;100415.69;4990730;28;20152;-68
2023/11/30 01:30:05;;;;;;;8.85;4.53;;;;;;;4.70;100.00;100414.69;4978073;28;20076;-71
2023/11/30 01:32:31;;;;;;;8.05;4.75;;;;;;;4.16;100.00;100434.47;4978581;28;20058;-70
2023/11/30 01:34:57;;;;;;;8.77;4.80;;;;;;;3.83;100.00;100400.03;4990890;28;20031;-70
2023/11/30 01:37:22;;;;;;;7.80;4.35;;;;;;;4.11;100.00;100417.97;5004965;28;20121;-70
2023/11/30 01:39:48;;;;;;;9.27;4.55;;;;;;;4.23;100.00;100425.50;4987096;28;20037;-75
2023/11/30 01:42:14;;;;;;;7.72;4.78;;;;;;;4.31;100.00;100425.97;4984168;28;20026;-71
2023/11/30 01:44:39;;;;;;;7.85;4.88;;;;;;;4.18;100.00;100411.56;4988013;28;20026;-70
2023/11/30 01:47:06;;;;;;;7.72;4.40;;;;;;;3.72;100.00;100428.31;4974336;28;20026;-69
2023/11/30 01:49:31;;;;;;;8.27;4.68;;;;;;;3.90;100.00;100445.59;4983326;28;20065;-67
2023/11/30 01:51:58;;;;;;;9.00;4.32;;;;;;;4.03;100.00;100458.34;5001375;28;20121;-68
2023/11/30 01:54:23;;;;;;;7.85;4.63;;;;;;;3.81;100.00;100445.00;4971910;28;20031;-69
2023/11/30 01:56:49;;;;;;;7.10;4.50;;;;;;;3.96;100.00;100460.41;4972679;28;20037;-69
2023/11/30 01:59:15;;;;;;;7.60;5.20;;;;;;;3.90;100.00;100455.81;4972710;28;20027;-71
2023/11/30 02:01:42;;;;;;;9.38;4.85;;;;;;;4.05;100.00;100471.25;4974422;28;20031;-68
2023/11/30 02:04:15;;;;;;;7.32;4.53;;;;;;;4.01;100.00;100436.94;4973177;28;20101;-70
2023/11/30 02:06:44;;;;;;;7.97;5.35;;;;;;;4.16;100.00;100475.34;4974020;28;20026;-70
2023/11/30 02:09:11;;;;;;;8.57;4.10;;;;;;;3.94;100.00;100483.31;4985215;28;20019;-69
2023/11/30 02:11:38;;;;;;;7.30;4.40;;;;;;;3.31;100.00;100401.00;4982157;28;20101;-70
2023/11/30 02:14:03;;;;;;;9.43;4.60;;;;;;;3.59;100.00;100448.75;4971414;28;20700;-70
2023/11/30 02:16:29;;;;;;;7.72;4.65;;;;;;;3.64;100.00;100433.72;4971707;28;20046;-68
2023/11/30 02:18:54;;;;;;;8.15;4.38;;;;;;;3.52;100.00;100403.19;4972549;28;20034;-68
2023/11/30 02:21:20;;;;;;;7.32;4.55;;;;;;;3.80;100.00;100443.22;4974137;28;20061;-69
2023/11/30 02:23:47;;;;;;;12.80;6.63;;;;;;;4.05;100.00;100487.44;4977413;28;20390;-69
2023/11/30 02:26:12;;;;;;;9.27;5.30;;;;;;;4.10;100.00;100489.38;4976933;28;20062;-69
2023/11/30 02:28:38;;;;;;;13.02;6.32;;;;;;;4.13;100.00;100494.72;4978220;28;20088;-69
2023/11/30 02:31:04;;;;;;;8.90;5.63;;;;;;;4.07;100.00;100494.31;4988147;28;20064;-70
2023/11/30 02:33:29;;;;;;;10.23;5.65;;;;;;;3.97;100.00;100506.50;4997343;28;20038;-69
2023/11/30 02:35:55;;;;;;;8.07;5.03;;;;;;;3.88;100.00;100495.69;4990870;28;20563;-68
2023/11/30 02:38:21;;;;;;;10.32;5.68;;;;;;;3.69;100.00;100456.22;5004718;28;20035;-68
2023/11/30 02:40:46;;;;;;;7.55;4.97;;;;;;;3.93;100.00;100509.66;4977685;28;20486;-68
2023/11/30 02:43:12;;;;;;;10.65;5.45;;;;;;;3.76;100.00;100489.81;4979992;28;20089;-69
2023/11/30 02:45:37;;;;;;;12.23;5.72;;;;;;;3.64;100.00;100487.31;4978267;28;20085;-70
2023/11/30 02:48:03;;;;;;;8.73;5.35;;;;;;;3.18;100.00;100401.03;4981106;28;20041;-68
2023/11/30 02:50:28;;;;;;;8.27;5.13;;;;;;;3.69;100.00;100537.03;4993651;28;20066;-72
2023/11/30 02:52:54;;;;;;;9.02;5.57;;;;;;;3.66;100.00;100504.50;4981000;28;20061;-71
2023/11/30 02:55:21;;;;;;;8.82;4.57;;;;;;;3.63;100.00;100506.00;4975129;28;20592;-70
2023/11/30 02:57:47;;;;;;;9.80;5.30;;;;;;;3.11;100.00;100432.88;4975514;28;20030;-69
2023/11/30 03:00:13;;;;;;;13.05;6.35;;;;;;;3.65;100.00;100525.75;4987039;28;20547;-72
2023/11/30 03:02:38;;;;;;;10.43;5.32;;;;;;;3.12;100.00;100456.72;4974725;28;20453;-71
2023/11/30 03:05:04;;;;;;;9.50;4.60;;;;;;;3.52;100.00;100525.72;4974522;28;20038;-73
2023/11/30 03:07:29;;;;;;;8.35;5.00;;;;;;;3.15;100.00;100454.38;4975069;28;20033;-69
2023/11/30 03:09:55;;;;;;;9.73;5.18;;;;;;;3.08;100.00;100445.44;4975172;28;20031;-72
2023/11/30 03:12:20;;;;;;;12.48;4.63;;;;;;;3.06;100.00;100452.09;4976242;28;20394;-72
2023/11/30 03:14:46;;;;;;;9.32;5.15;;;;;;;3.51;100.00;100549.47;4975140;28;20030;-69
2023/11/30 03:17:11;;;;;;;10.68;5.15;;;;;;;3.50;100.00;100550.25;4976933;28;20037;-70
2023/11/30 03:19:38;;;;;;;10.73;5.70;;;;;;;3.49;100.00;100559.56;4976001;28;20034;-69
2023/11/30 03:22:04;;;;;;;7.93;4.60;;;;;;;3.52;100.00;100561.44;4977719;28;20064;-73
2023/11/30 03:24:29;;;;;;;9.50;5.00;;;;;;;3.42;100.00;100541.22;4976415;28;20098;-70
2023/11/30 03:26:55;;;;;;;10.93;5.05;;;;;;;2.87;100.00;100467.84;4979173;28;20109;-69
2023/11/30 03:29:20;;;;;;;9.38;5.30;;;;;;;3.40;100.00;100559.84;4976853;28;20089;-68
2023/11/30 03:31:45;;;;;;;10.27;5.43;;;;;;;3.10;100.00;100525.47;4979599;28;20054;-68
2023/11/30 03:34:11;;;;;;;10.10;5.50;;;;;;;3.38;100.00;100561.41;4977506;28;20039;-70
2023/11/30 03:36:36;;;;;;;10.10;5.10;;;;;;;3.40;100.00;100569.16;4980368;28;20511;-70
2023/11/30 03:39:02;;;;;;;9.10;4.95;;;;;;;3.08;100.00;100550.03;4977235;28;20038;-69
2023/11/30 03:41:27;;;;;;;8.48;5.40;;;;;;;3.14;100.00;100564.84;4980940;28;20109;-71
2023/11/30 03:43:53;;;;;;;8.65;4.53;;;;;;;2.97;100.00;100533.97;4977795;28;20041;-70
2023/11/30 03:46:21;;;;;;;8.57;4.90;;;;;;;2.68;100.00;100522.66;4981678;28;20026;-71
2023/11/30 03:48:46;;;;;;;8.45;4.80;;;;;;;2.95;100.00;100567.81;4983511;28;20034;-69
2023/11/30 03:51:12;;;;;;;8.23;4.75;;;;;;;2.86;100.00;100583.34;4992741;28;20026;-69
2023/11/30 03:53:37;;;;;;;10.93;5.22;;;;;;;2.93;100.00;100570.25;4975025;28;20397;-69
2023/11/30 03:56:03;;;;;;;8.00;4.57;;;;;;;2.82;100.00;100586.47;4974538;28;20023;-69
2023/11/30 03:58:29;;;;;;;7.47;4.50;;;;;;;2.64;100.00;100550.38;4975097;28;20121;-68
2023/11/30 04:00:54;;;;;;;6.88;4.50;;;;;;;2.94;100.00;100588.97;4974694;28;20038;-68
2023/11/30 04:03:19;;;;;;;8.30;4.80;;;;;;;2.61;100.00;100543.41;4974619;28;20027;-68
2023/11/30 04:05:45;;;;;;;8.52;4.78;;;;;;;3.08;100.00;100609.56;4998015;28;20101;-71
2023/11/30 04:08:11;;;;;;;9.13;5.97;;;;;;;2.99;100.00;100601.28;4992407;28;20026;-69
2023/11/30 04:10:36;;;;;;;9.80;6.10;;;;;;;2.41;100.00;100494.47;4992361;28;20723;-69
2023/11/30 04:13:02;;;;;;;8.90;5.40;;;;;;;3.02;100.00;100586.19;4992422;28;20031;-70
2023/11/30 04:15:27;;;;;;;8.32;5.05;;;;;;;3.07;100.00;100605.22;4992584;28;20038;-69
2023/11/30 04:17:53;;;;;;;9.55;5.28;;;;;;;3.06;100.00;100622.97;4992299;28;20018;-70
2023/11/30 04:20:19;;;;;;;8.43;5.28;;;;;;;2.97;100.00;100607.94;4992210;28;20026;-70
2023/11/30 04:22:44;;;;;;;8.90;5.00;;;;;;;3.15;100.00;100626.16;4991962;28;20030;-73
2023/11/30 04:25:11;;;;;;;11.27;5.10;;;;;;;2.99;100.00;100611.47;4992534;28;20026;-70
2023/11/30 04:27:37;;;;;;;7.50;4.85;;;;;;;2.88;100.00;100577.56;4995873;28;20088;-70
2023/11/30 04:30:03;;;;;;;7.57;4.68;;;;;;;3.17;100.00;100627.16;4992292;28;20038;-71
2023/11/30 04:32:29;;;;;;;7.05;4.43;;;;;;;3.16;100.00;100648.34;4991918;28;20046;-70
2023/11/30 04:34:54;;;;;;;5.90;4.45;;;;;;;3.03;100.00;100648.28;4992053;28;20169;-70
2023/11/30 04:37:20;;;;;;;9.15;4.60;;;;;;;2.70;100.00;100642.56;4991870;28;20037;-70
2023/11/30 04:39:45;;;;;;;8.23;5.07;;;;;;;2.68;100.00;100667.06;4992495;28;20077;-70
2023/11/30 04:42:10;;;;;;;6.90;4.57;;;;;;;2.64;100.00;100675.28;4992317;28;20088;-69
2023/11/30 04:44:36;;;;;;;8.93;5.72;;;;;;;2.66;100.00;100678.81;4991575;28;20041;-69
2023/11/30 04:47:01;;;;;;;8.20;5.53;;;;;;;2.59;100.00;100660.53;5022192;28;20113;-70
2023/11/30 04:49:27;;;;;;;6.95;5.03;;;;;;;2.59;100.00;100672.38;4991699;28;20026;-70
2023/11/30 04:51:52;;;;;;;8.48;4.93;;;;;;;2.58;100.00;100678.28;4991919;28;20064;-69
2023/11/30 04:54:17;;;;;;;7.50;4.90;;;;;;;2.64;100.00;100678.72;4991858;28;20375;-72
2023/11/30 04:56:43;;;;;;;8.18;5.07;;;;;;;2.31;100.00;100631.28;4991122;28;20536;-70
2023/11/30 04:59:08;;;;;;;6.32;4.57;;;;;;;2.33;100.00;100624.63;4992010;28;20038;-68
2023/11/30 05:01:34;;;;;;;8.07;4.97;;;;;;;2.58;100.00;100683.38;4990781;28;20038;-70
2023/11/30 05:03:59;;;;;;;12.68;5.13;;;;;;;2.32;100.00;100661.06;4991398;28;20545;-70
2023/11/30 05:06:24;;;;;;;10.15;5.45;;;;;;;2.47;100.00;100710.63;4990897;28;20041;-70
2023/11/30 05:08:50;;;;;;;10.80;7.18;;;;;;;2.46;100.00;100697.78;4991430;28;20076;-70
2023/11/30 05:11:16;;;;;;;11.52;6.75;;;;;;;2.47;100.00;100712.25;4991351;28;20049;-70
2023/11/30 05:13:41;;;;;;;9.65;6.05;;;;;;;2.45;100.00;100707.06;4988817;28;20046;-71
2023/11/30 05:16:09;;;;;;;14.52;6.72;;;;;;;1.88;100.00;100616.28;4991817;28;20030;-70
2023/11/30 05:18:34;;;;;;;8.93;5.80;;;;;;;2.46;100.00;100718.16;4990698;28;20030;-70
2023/11/30 05:20:59;;;;;;;9.80;6.25;;;;;;;2.45;100.00;100724.03;4991018;28;20026;-69
2023/11/30 05:23:25;;;;;;;11.25;6.50;;;;;;;2.35;100.00;100705.50;5003620;28;20464;-75
2023/11/30 05:25:51;;;;;;;9.60;6.10;;;;;;;2.41;100.00;100739.06;4990907;28;20025;-70
2023/11/30 05:28:16;;;;;;;8.32;5.50;;;;;;;2.48;100.00;100726.78;4990977;28;20030;-68
2023/11/30 05:30:42;;;;;;;8.82;5.20;;;;;;;2.41;100.00;100700.84;4990862;28;20033;-69
2023/11/30 05:33:07;;;;;;;13.70;5.60;;;;;;;2.41;100.00;100712.72;4990902;28;20151;-70
2023/11/30 05:35:34;;;;;;;8.75;5.53;;;;;;;2.49;100.00;100723.47;4986809;28;20495;-69
2023/11/30 05:38:01;;;;;;;19.60;12.00;;;;;;;1.50;100.00;100553.25;4991099;28;20034;-72
2023/11/30 05:40:26;;;;;;;18.83;10.30;;;;;;;2.64;100.00;100759.38;4990574;28;20464;-70
2023/11/30 05:42:52;;;;;;;10.80;6.35;;;;;;;2.54;100.00;100730.69;4990876;28;20026;-69
2023/11/30 05:45:17;;;;;;;28.20;16.27;;;;;;;2.61;100.00;100737.09;4991002;28;20038;-69
2023/11/30 05:47:43;;;;;;;9.75;6.40;;;;;;;2.43;100.00;100713.72;4990917;28;20080;-69
2023/11/30 05:50:09;;;;;;;21.85;12.70;;;;;;;1.94;100.00;100616.75;4990650;28;20485;-74
2023/11/30 05:52:35;;;;;;;11.23;7.57;;;;;;;2.45;100.00;100714.72;4990686;28;20038;-69
2023/11/30 05:55:03;;;;;;;9.20;6.57;;;;;;;2.66;100.00;100740.88;4990097;28;20046;-69
2023/11/30 05:57:30;;;;;;;11.57;6.85;;;;;;;2.65;100.00;100748.41;4991183;28;20421;-69
2023/11/30 05:59:55;;;;;;;30.85;14.88;;;;;;;2.55;100.00;100744.31;4990657;28;20105;-69
2023/11/30 06:02:22;;;;;;;33.90;16.35;;;;;;;2.41;100.00;100744.16;4990860;28;20177;-70
2023/11/30 06:04:54;;;;;;;26.17;11.90;;;;;;;2.48;100.00;100753.19;5004396;28;20625;-69
2023/11/30 06:07:20;;;;;;;16.15;8.48;;;;;;;2.51;100.00;100738.09;4991304;28;20500;-69
2023/11/30 06:09:46;;;;;;;11.35;7.78;;;;;;;2.49;100.00;100731.97;4990567;28;20035;-69
2023/11/30 06:12:12;;;;;;;19.88;9.00;;;;;;;2.69;100.00;100748.75;4991092;28;20037;-69
2023/11/30 06:14:37;;;;;;;14.77;8.98;;;;;;;2.72;100.00;100753.19;4990765;28;20035;-69
2023/11/30 06:17:03;;;;;;;18.73;8.85;;;;;;;2.67;100.00;100734.13;4990520;28;20485;-69
2023/11/30 06:19:29;;;;;;;17.52;10.52;;;;;;;2.69;100.00;100730.00;4990481;28;20065;-69
2023/11/30 06:21:54;;;;;;;17.95;8.70;;;;;;;2.81;100.00;100758.94;4991006;28;20050;-69
2023/11/30 06:24:19;;;;;;;15.23;7.88;;;;;;;2.71;100.00;100743.78;4991747;28;20103;-68
2023/11/30 06:26:45;;;;;;;12.52;7.60;;;;;;;2.69;100.00;100748.75;4990834;28;20463;-70
2023/11/30 06:29:15;;;;;;;13.45;7.32;;;;;;;2.84;100.00;100787.25;4990580;28;20027;-68
2023/11/30 06:31:41;;;;;;;11.57;7.47;;;;;;;2.84;100.00;100773.59;4990386;28;20097;-69
2023/11/30 06:34:07;;;;;;;17.30;7.47;;;;;;;2.94;100.00;100778.59;4990366;28;20432;-69
2023/11/30 06:36:32;;;;;;;12.43;7.05;;;;;;;2.87;100.00;100761.06;4990723;28;20030;-69
2023/11/30 06:38:57;;;;;;;13.20;6.90;;;;;;;3.15;100.00;100791.09;4990369;28;20048;-76
2023/11/30 06:41:23;;;;;;;13.98;9.48;;;;;;;3.19;100.00;100782.88;4990966;28;20101;-68
2023/11/30 06:43:48;;;;;;;18.45;13.32;;;;;;;3.23;100.00;100790.88;4990134;28;20492;-69
2023/11/30 06:46:21;;;;;;;17.85;14.02;;;;;;;3.14;100.00;100791.88;4990318;28;20452;-69
2023/11/30 06:48:47;;;;;;;14.05;10.00;;;;;;;2.99;100.00;100784.91;4987804;28;20050;-69
2023/11/30 06:51:13;;;;;;;19.00;10.93;;;;;;;2.59;100.00;100734.47;4990599;28;20027;-69
2023/11/30 06:53:39;;;;;;;19.08;12.10;;;;;;;2.13;100.00;100689.41;4990039;28;20030;-67
2023/11/30 06:56:05;;;;;;;21.75;13.15;;;;;;;2.52;100.00;100778.09;4990738;28;20505;-68
2023/11/30 06:58:30;;;;;;;19.50;11.90;;;;;;;1.49;100.00;100617.63;5004375;28;20080;-69
2023/11/30 07:00:56;;;;;;;20.17;12.25;;;;;;;2.46;100.00;100784.41;4990049;28;20467;-69
2023/11/30 07:03:23;;;;;;;30.70;18.92;;;;;;;2.26;100.00;100743.91;4990396;28;20481;-68
2023/11/30 07:05:48;;;;;;;39.15;29.27;;;;;;;2.36;100.00;100772.66;4990374;28;20113;-68
2023/11/30 07:08:13;;;;;;;39.10;30.23;;;;;;;2.29;100.00;100756.00;4993734;28;20027;-69
2023/11/30 07:10:39;;;;;;;28.50;20.90;;;;;;;1.97;100.00;100685.72;4994217;28;20030;-69
2023/11/30 07:13:04;;;;;;;19.70;14.52;;;;;;;2.50;100.00;100783.84;4993791;28;20023;-74
2023/11/30 07:15:30;;;;;;;26.75;12.15;;;;;;;2.52;100.00;100787.41;4993455;28;20754;-71
2023/11/30 07:17:55;;;;;;;16.40;9.32;;;;;;;2.50;100.00;100772.00;4993496;28;20184;-68
2023/11/30 07:20:20;;;;;;;17.40;8.40;;;;;;;2.53;100.00;100750.94;4994062;28;20037;-69
2023/11/30 07:22:46;;;;;;;11.27;7.68;;;;;;;2.84;100.00;100787.25;4993808;28;20042;-68
2023/11/30 07:25:12;;;;;;;13.60;8.48;;;;;;;2.72;100.00;100761.72;4994007;28;20030;-69
2023/11/30 07:27:38;;;;;;;14.80;8.43;;;;;;;2.07;100.00;100642.34;4993446;28;20031;-67
2023/11/30 07:30:07;;;;;;;16.52;9.85;;;;;;;2.83;100.00;100766.72;4993411;28;20037;-74
2023/11/30 07:32:33;;;;;;;;;;;;;;;3.12;100.00;100798.56;4993804;28;20054;-69
2023/11/30 07:34:59;;;;;;;13.65;8.82;;;;;;;3.02;100.00;100771.50;4993623;28;20392;-68
2023/11/30 07:37:25;;;;;;;17.77;9.10;;;;;;;3.16;100.00;100803.97;4993208;28;20034;-68
2023/11/30 07:39:50;;;;;;;13.45;8.73;;;;;;;2.59;100.00;100675.84;5008361;28;20041;-69
2023/11/30 07:42:16;;;;;;;14.77;8.35;;;;;;;3.38;100.00;100808.94;4992966;28;20023;-73
2023/11/30 07:44:42;;;;;;;13.27;8.63;;;;;;;2.96;100.00;100730.25;4992913;28;20034;-75
2023/11/30 07:47:08;;;;;;;12.13;8.15;;;;;;;2.97;100.00;100735.44;4992780;28;20030;-68
2023/11/30 07:49:33;;;;;;;11.57;8.20;;;;;;;3.27;100.00;100788.56;4992553;28;20034;-69
2023/11/30 07:51:58;;;;;;;14.27;8.45;;;;;;;3.46;100.00;100818.81;4993133;28;20023;-69
2023/11/30 07:54:24;;;;;;;13.52;8.95;;;;;;;2.89;100.00;100708.50;4993538;28;20072;-70
2023/11/30 07:56:50;;;;;;;15.52;9.45;;;;;;;3.63;100.00;100833.66;4992826;28;20019;-74
2023/11/30 07:59:16;;;;;;;17.83;9.15;;;;;;;3.20;100.00;100726.00;4993026;28;20370;-73
2023/11/30 08:02:03;;;;;;;15.00;8.20;;;;;;;3.73;100.00;100792.66;4990319;28;20039;-69
2023/11/30 08:04:29;;;;;;;12.07;7.70;;;;;;;4.18;100.00;100843.41;4989851;28;20069;-69
2023/11/30 08:06:55;;;;;;;14.25;8.15;;;;;;;4.34;100.00;100833.44;4974116;28;20540;-70
2023/11/30 08:09:20;;;;;;;12.88;7.68;;;;;;;4.50;100.00;100830.25;4990338;28;20532;-69
2023/11/30 08:11:45;;;;;;;11.80;7.68;;;;;;;4.66;100.00;100841.50;4990019;28;20043;-69
2023/11/30 08:14:12;;;;;;;12.57;7.90;;;;;;;4.78;100.00;100839.75;4990136;28;20034;-70
2023/11/30 08:16:37;;;;;;;10.68;7.72;;;;;;;4.89;100.00;100837.91;4990180;28;20045;-68
2023/11/30 08:19:05;;;;;;;10.77;7.00;;;;;;;5.00;100.00;100842.03;4989074;28;20034;-69
2023/11/30 08:21:30;;;;;;;11.10;7.60;;;;;;;4.52;100.00;100743.41;4990210;28;20042;-69
2023/11/30 08:23:55;;;;;;;12.18;7.65;;;;;;;5.21;100.00;100851.00;4989868;28;20468;-69
2023/11/30 08:26:21;;;;;;;14.85;8.00;;;;;;;5.31;100.00;100856.84;4989904;28;20046;-69
2023/11/30 08:28:46;;;;;;;13.55;7.05;;;;;;;5.12;100.00;100818.03;4989864;28;20158;-69
2023/11/30 08:31:12;;;;;;;16.90;10.15;;;;;;;5.42;100.00;100849.84;4989655;28;20571;-69
2023/11/30 08:33:38;;;;;;;15.35;7.60;;;;;;;5.58;100.00;100856.84;4991298;28;20049;-70
2023/11/30 08:36:05;;;;;;;17.58;7.40;;;;;;;5.73;100.00;100856.91;4992114;28;20041;-69
2023/11/30 08:38:32;;;;;;;12.98;7.60;;;;;;;5.41;100.00;100780.59;4992025;28;20045;-70
2023/11/30 08:40:58;;;;;;;14.02;9.15;;;;;;;5.83;100.00;100825.03;4992566;28;20117;-70
2023/11/30 08:43:24;;;;;;;12.40;7.45;;;;;;;5.62;100.00;100781.06;4991077;28;20117;-70
2023/11/30 08:45:49;;;;;;;15.93;7.90;;;;;;;6.11;100.00;100857.53;4992116;28;20026;-69
2023/11/30 08:48:14;;;;;;;17.90;7.38;;;;;;;6.18;100.00;100848.53;4992306;28;20109;-69
2023/11/30 08:50:40;;;;;;;16.02;7.10;;;;;;;5.96;100.00;100809.63;4992267;28;20092;-69
2023/11/30 08:53:05;;;;;;;17.17;7.38;;;;;;;6.21;100.00;100841.06;4991849;28;20424;-68
2023/11/30 08:55:32;;;;;;;22.17;8.07;;;;;;;6.19;100.00;100837.50;4991780;28;20716;-68
2023/11/30 08:57:57;;;;;;;14.32;7.47;;;;;;;6.13;100.00;100800.44;4991714;28;20480;-69
2023/11/30 09:00:22;;;;;;;20.73;11.30;;;;;;;6.48;100.00;100823.88;4992219;28;20030;-69
2023/11/30 09:02:48;;;;;;;15.75;8.38;;;;;;;6.59;100.00;100827.03;4991349;28;20037;-69
2023/11/30 09:05:13;;;;;;;14.18;6.70;;;;;;;6.67;100.00;100812.09;4992152;28;20030;-68
2023/11/30 09:07:39;;;;;;;12.82;7.72;;;;;;;6.59;100.00;100821.91;4991333;28;20030;-70
2023/11/30 09:10:05;;;;;;;9.70;6.65;;;;;;;6.67;100.00;100818.13;4991481;28;20404;-74
2023/11/30 09:12:30;;;;;;;16.35;7.20;;;;;;;6.66;100.00;100784.69;4991508;28;20053;-68
2023/11/30 09:14:56;;;;;;;11.70;7.18;;;;;;;6.86;100.00;100809.78;4991837;28;20105;-69
2023/11/30 09:17:22;;;;;;;10.95;7.22;;;;;;;6.47;100.00;100728.06;4982026;28;20133;-71
2023/11/30 09:19:47;;;;;;;12.65;7.60;;;;;;;6.89;100.00;100781.75;4991263;28;20034;-69
2023/11/30 09:22:13;;;;;;;10.63;7.25;;;;;;;7.02;100.00;100774.75;4990359;28;20103;-69
2023/11/30 09:24:38;;;;;;;13.05;8.00;;;;;;;6.60;100.00;100688.63;4982007;28;20485;-71
2023/11/30 09:27:04;;;;;;;10.13;6.95;;;;;;;7.04;100.00;100766.34;4991107;28;20046;-70
2023/11/30 09:29:29;;;;;;;10.90;7.32;;;;;;;6.93;100.00;100770.84;4989363;28;20066;-71
2023/11/30 09:31:55;;;;;;;12.23;7.03;;;;;;;6.85;100.00;100753.25;4979199;28;20432;-70
2023/11/30 09:34:20;;;;;;;13.65;8.32;;;;;;;7.15;100.00;100774.63;4991142;28;20061;-69
2023/11/30 09:36:45;;;;;;;13.25;7.60;;;;;;;6.52;100.00;100668.44;4989672;28;20038;-69
2023/11/30 09:39:14;;;;;;;15.18;7.60;;;;;;;7.31;100.00;100758.38;4990487;28;20042;-69
2023/11/30 09:41:40;;;;;;;14.80;7.38;;;;;;;7.24;100.00;100774.25;4990357;28;20093;-69
2023/11/30 09:44:06;;;;;;;13.05;6.88;;;;;;;7.28;100.00;100771.06;4991109;28;20031;-71
2023/11/30 09:46:32;;;;;;;11.85;7.40;;;;;;;7.44;100.00;100770.22;4979552;28;20097;-69
2023/11/30 09:49:00;;;;;;;10.50;7.20;;;;;;;7.26;100.00;100741.84;4972302;28;20457;-69
2023/11/30 09:51:28;;;;;;;10.93;7.47;;;;;;;6.96;100.00;100652.94;4987592;28;20481;-69
2023/11/30 09:53:57;;;;;;;14.15;7.05;;;;;;;7.55;100.00;100747.66;4989494;28;20026;-69
2023/11/30 09:56:27;;;;;;;11.27;7.47;;;;;;;7.55;100.00;100733.16;4989569;28;20057;-70
2023/11/30 09:58:53;;;;;;;;;;;;;;;7.59;100.00;100714.50;4986144;28;20031;-68
2023/11/30 10:01:19;;;;;;;13.85;7.38;;;;;;;7.85;100.00;100706.38;4984711;28;20020;-68
2023/11/30 10:03:45;;;;;;;12.13;6.95;;;;;;;7.93;100.00;100711.13;4990787;28;20030;-68
2023/11/30 10:06:11;;;;;;;14.68;7.75;;;;;;;7.97;100.00;100704.44;4990671;28;20034;-70
2023/11/30 10:08:36;;;;;;;10.35;7.40;;;;;;;8.18;100.00;100725.22;5005809;28;20038;-66
2023/11/30 10:11:03;;;;;;;11.93;6.60;;;;;;;7.91;100.00;100722.13;4989721;28;20034;-69
2023/11/30 10:13:29;;;;;;;9.73;6.65;;;;;;;7.47;100.00;100636.78;4982249;28;20045;-67
2023/11/30 10:15:54;;;;;;;9.77;6.40;;;;;;;8.02;100.00;100705.56;4988014;28;20026;-68
2023/11/30 10:18:20;;;;;;;12.38;7.57;;;;;;;7.72;100.00;100648.34;4990286;28;20034;-69
2023/11/30 10:20:46;;;;;;;11.43;6.35;;;;;;;8.17;100.00;100702.00;4990486;28;20061;-70
2023/11/30 10:23:13;;;;;;;15.63;6.60;;;;;;;8.24;100.00;100704.97;5021131;28;20432;-71
2023/11/30 10:25:42;;;;;;;9.10;6.65;;;;;;;8.36;100.00;100697.00;4976106;28;20457;-70
2023/11/30 10:28:13;;;;;;;11.18;7.13;;;;;;;8.51;100.00;100680.56;4981963;28;20113;-69
2023/11/30 10:30:44;;;;;;;12.65;6.50;;;;;;;8.52;100.00;100685.78;4989145;28;20092;-70
2023/11/30 10:33:13;;;;;;;13.68;6.55;;;;;;;8.49;100.00;100657.31;4990254;28;20416;-72
2023/11/30 10:35:43;;;;;;;13.27;6.53;;;;;;;8.83;100.00;100664.06;4990294;28;20098;-70
2023/11/30 10:38:15;;;;;;;11.05;6.68;;;;;;;8.56;100.00;100607.94;4990178;28;20034;-71
2023/11/30 10:40:42;;;;;;;12.10;7.18;;;;;;;9.13;100.00;100684.34;4986803;28;20035;-71
2023/11/30 10:43:09;;;;;;;9.10;5.88;;;;;;;9.20;100.00;100675.22;4985906;28;20548;-70
2023/11/30 10:45:40;;;;;;;14.05;7.70;;;;;;;9.28;100.00;100683.28;4980565;28;20101;-70
2023/11/30 10:48:11;;;;;;;12.45;7.22;;;;;;;9.33;100.00;100666.34;4974906;28;20114;-69
2023/11/30 10:50:36;;;;;;;11.43;6.53;;;;;;;9.50;100.00;100683.44;4975188;28;20045;-69
2023/11/30 10:53:08;;;;;;;7.60;5.05;;;;;;;9.49;100.00;100668.78;4975362;28;20461;-69
2023/11/30 10:55:34;;;;;;;9.23;5.55;;;;;;;9.54;100.00;100675.06;4972890;28;20134;-70
2023/11/30 10:58:04;;;;;;;9.63;5.57;;;;;;;9.60;100.00;100679.59;4975360;28;20113;-70
2023/11/30 11:00:34;;;;;;;10.20;5.15;;;;;;;9.62;100.00;100682.22;4972372;28;20129;-74
2023/11/30 11:03:07;;;;;;;8.23;5.10;;;;;;;9.65;100.00;100682.38;4974981;28;20031;-70
2023/11/30 11:05:32;;;;;;;9.32;5.00;;;;;;;9.77;100.00;100684.59;4975429;28;20023;-70
2023/11/30 11:07:58;;;;;;;11.60;4.95;;;;;;;9.75;100.00;100666.47;4975000;28;20026;-69
2023/11/30 11:10:28;;;;;;;18.20;5.22;;;;;;;9.88;100.00;100676.50;4988864;28;20026;-70
2023/11/30 11:15:29;;;;;;;12.88;4.82;;;;;;;9.87;100.00;100637.78;5028665;23;20475;-70
2023/11/30 11:18:02;;;;;;;12.02;4.68;;;;;;;10.13;100.00;100672.41;5013690;28;20026;-71